Sheridan, NY (14135)

4:42 PM EDT on September 29, 2016 (GMT -0400)
East Main Street | | Change Station

Elev 738 ft 42.44 °N, 79.33 °W | Updated 2 minutes ago

Overcast
Overcast
66.2 °F
Feels Like 66.2 °F
N
1.2
Wind Variable Wind from East
Gusts 3.7 mph

Today
High -- | Low -- °F
--% Chance of Precip.
Yesterday
High -- | Low -- °F
Precip. -- in
Pressure 30.22 in
Visibility 10.0 miles
Clouds Overcast 2400 ft
Dew Point 61 °F
Humidity 82%
Rainfall Not available.
Snow Depth Not available.
7:12 AM 7:01 PM
Waning Crescent, 1% visible
METAR KDKK 291953Z AUTO 06009KT 10SM OVC024 18/16 A3022 RMK AO2 RAE16 SLP231 P0000 T01780161
Pressure 30.22 in
Visibility 10.0 miles
Clouds Overcast 2400 ft
Dew Point 61 °F
Humidity 82%
Rainfall Not available.
Snow Depth Not available.
7:12 AM 7:01 PM
Waning Crescent, 1% visible
METAR KDKK 291953Z AUTO 06009KT 10SM OVC024 18/16 A3022 RMK AO2 RAE16 SLP231 P0000 T01780161

10-Day Weather Forecast

Almanac

Astronomy

Sep. 29, 2016 Rise Set
Actual Time
Civil Twilight
Nautical Twilight
Astronomical Twilight
Moon
Length of Visible Light
Length of Day
Tomorrow will be .
, % of the Moon is Illuminated

Today's Extremes

State Highs State Lows

Community

WunderPhotos

Upload Photos

1,942,564 photos uploaded!

WunderBlog® & News

Nearby

Air Quality

  Air Quality AQ Index Pollutant
Not available.

Snow Depth

Station Depth Elevation

Earthquake Activity

City Distance Mag. Time & Date
Minimum magnitude displayed is 2.5.

Coastal Water Temperatures

Place Temperature

Stations

Nearby Weather Stations

Station Location Temp. Windchill Dew Point Humidity Wind Precip. Elev Updated Type
                   

Watches & Warnings

There are currently no watches in effect.